sensor_id;sensor_type;location;lat;lon;timestamp;P1;durP1;ratioP1;P2;durP2;ratioP2
32250;SDS011;41295;48.518;9.206;2023-05-20T00:01:25;16.08;;;9.90;;
32250;SDS011;41295;48.518;9.206;2023-05-20T00:03:28;16.17;;;9.68;;
32250;SDS011;41295;48.518;9.206;2023-05-20T00:05:31;19.73;;;10.18;;
32250;SDS011;41295;48.518;9.206;2023-05-20T00:07:33;22.13;;;10.93;;
32250;SDS011;41295;48.518;9.206;2023-05-20T00:09:38;18.25;;;9.98;;
32250;SDS011;41295;48.518;9.206;2023-05-20T00:11:41;14.02;;;9.65;;
32250;SDS011;41295;48.518;9.206;2023-05-20T00:13:43;19.20;;;10.18;;
32250;SDS011;41295;48.518;9.206;2023-05-20T00:15:48;19.90;;;10.50;;
32250;SDS011;41295;48.518;9.206;2023-05-20T00:17:51;19.45;;;9.52;;
32250;SDS011;41295;48.518;9.206;2023-05-20T00:19:53;15.05;;;10.00;;
32250;SDS011;41295;48.518;9.206;2023-05-20T00:21:56;18.08;;;11.65;;
32250;SDS011;41295;48.518;9.206;2023-05-20T00:23:59;18.55;;;10.57;;
32250;SDS011;41295;48.518;9.206;2023-05-20T00:26:03;18.38;;;10.68;;
32250;SDS011;41295;48.518;9.206;2023-05-20T00:28:05;17.33;;;10.63;;
32250;SDS011;41295;48.518;9.206;2023-05-20T00:30:08;19.08;;;10.90;;
32250;SDS011;41295;48.518;9.206;2023-05-20T00:32:12;18.70;;;10.93;;
32250;SDS011;41295;48.518;9.206;2023-05-20T00:34:15;17.63;;;11.10;;
32250;SDS011;41295;48.518;9.206;2023-05-20T00:36:17;19.10;;;10.80;;
32250;SDS011;41295;48.518;9.206;2023-05-20T00:38:20;20.90;;;11.50;;
32250;SDS011;41295;48.518;9.206;2023-05-20T00:40:23;17.40;;;11.00;;
32250;SDS011;41295;48.518;9.206;2023-05-20T00:42:27;20.65;;;12.25;;
32250;SDS011;41295;48.518;9.206;2023-05-20T00:44:30;17.95;;;11.27;;
32250;SDS011;41295;48.518;9.206;2023-05-20T00:46:33;24.48;;;11.65;;
32250;SDS011;41295;48.518;9.206;2023-05-20T00:48:38;19.42;;;10.90;;
32250;SDS011;41295;48.518;9.206;2023-05-20T00:50:43;18.88;;;10.20;;
32250;SDS011;41295;48.518;9.206;2023-05-20T00:52:46;18.92;;;11.35;;
32250;SDS011;41295;48.518;9.206;2023-05-20T00:54:51;19.60;;;11.27;;
32250;SDS011;41295;48.518;9.206;2023-05-20T00:56:54;22.05;;;11.85;;
32250;SDS011;41295;48.518;9.206;2023-05-20T00:58:59;26.27;;;11.27;;
32250;SDS011;41295;48.518;9.206;2023-05-20T01:01:02;19.38;;;11.00;;
32250;SDS011;41295;48.518;9.206;2023-05-20T01:03:04;24.75;;;10.88;;
32250;SDS011;41295;48.518;9.206;2023-05-20T01:05:07;18.33;;;11.50;;
32250;SDS011;41295;48.518;9.206;2023-05-20T01:07:11;18.40;;;11.20;;
32250;SDS011;41295;48.518;9.206;2023-05-20T01:09:14;16.52;;;10.25;;
32250;SDS011;41295;48.518;9.206;2023-05-20T01:11:19;15.95;;;10.10;;
32250;SDS011;41295;48.518;9.206;2023-05-20T01:13:28;18.65;;;10.73;;
32250;SDS011;41295;48.518;9.206;2023-05-20T01:15:38;17.77;;;11.13;;
32250;SDS011;41295;48.518;9.206;2023-05-20T01:17:43;17.65;;;10.20;;
32250;SDS011;41295;48.518;9.206;2023-05-20T01:19:48;18.85;;;11.90;;
32250;SDS011;41295;48.518;9.206;2023-05-20T01:21:51;19.27;;;11.05;;
32250;SDS011;41295;48.518;9.206;2023-05-20T01:23:56;19.88;;;11.10;;
32250;SDS011;41295;48.518;9.206;2023-05-20T01:25:59;22.40;;;10.73;;
32250;SDS011;41295;48.518;9.206;2023-05-20T01:28:01;22.63;;;11.75;;
32250;SDS011;41295;48.518;9.206;2023-05-20T01:30:05;20.70;;;10.77;;
32250;SDS011;41295;48.518;9.206;2023-05-20T01:32:10;19.50;;;10.80;;
32250;SDS011;41295;48.518;9.206;2023-05-20T01:34:16;18.52;;;11.65;;
32250;SDS011;41295;48.518;9.206;2023-05-20T01:36:19;17.02;;;10.20;;
32250;SDS011;41295;48.518;9.206;2023-05-20T01:38:22;19.40;;;10.07;;
32250;SDS011;41295;48.518;9.206;2023-05-20T01:40:27;17.10;;;10.85;;
32250;SDS011;41295;48.518;9.206;2023-05-20T01:42:32;14.98;;;10.25;;
32250;SDS011;41295;48.518;9.206;2023-05-20T01:44:36;15.02;;;9.95;;
32250;SDS011;41295;48.518;9.206;2023-05-20T01:46:39;15.55;;;10.02;;
32250;SDS011;41295;48.518;9.206;2023-05-20T01:48:42;16.35;;;10.18;;
32250;SDS011;41295;48.518;9.206;2023-05-20T01:50:44;16.90;;;9.85;;
32250;SDS011;41295;48.518;9.206;2023-05-20T01:52:47;26.98;;;9.73;;
32250;SDS011;41295;48.518;9.206;2023-05-20T01:54:50;15.90;;;10.13;;
32250;SDS011;41295;48.518;9.206;2023-05-20T01:56:54;19.80;;;9.63;;
32250;SDS011;41295;48.518;9.206;2023-05-20T01:58:57;22.73;;;9.93;;
32250;SDS011;41295;48.518;9.206;2023-05-20T02:00:59;18.90;;;10.32;;
32250;SDS011;41295;48.518;9.206;2023-05-20T02:03:02;20.02;;;9.60;;
32250;SDS011;41295;48.518;9.206;2023-05-20T02:05:05;19.75;;;10.25;;
32250;SDS011;41295;48.518;9.206;2023-05-20T02:07:08;13.85;;;9.52;;
32250;SDS011;41295;48.518;9.206;2023-05-20T02:09:11;14.65;;;8.93;;
32250;SDS011;41295;48.518;9.206;2023-05-20T02:11:14;18.52;;;10.60;;
32250;SDS011;41295;48.518;9.206;2023-05-20T02:13:18;14.38;;;9.50;;
32250;SDS011;41295;48.518;9.206;2023-05-20T02:15:20;14.65;;;10.10;;
32250;SDS011;41295;48.518;9.206;2023-05-20T02:17:24;16.92;;;9.73;;
32250;SDS011;41295;48.518;9.206;2023-05-20T02:19:27;16.02;;;9.68;;
32250;SDS011;41295;48.518;9.206;2023-05-20T02:21:30;17.38;;;10.10;;
32250;SDS011;41295;48.518;9.206;2023-05-20T02:23:33;15.43;;;9.63;;
32250;SDS011;41295;48.518;9.206;2023-05-20T02:25:35;21.73;;;9.80;;
32250;SDS011;41295;48.518;9.206;2023-05-20T02:27:38;16.45;;;9.20;;
32250;SDS011;41295;48.518;9.206;2023-05-20T02:29:42;22.25;;;9.57;;
32250;SDS011;41295;48.518;9.206;2023-05-20T02:31:45;14.77;;;8.75;;
32250;SDS011;41295;48.518;9.206;2023-05-20T02:33:49;20.17;;;8.98;;
32250;SDS011;41295;48.518;9.206;2023-05-20T02:35:51;13.85;;;9.05;;
32250;SDS011;41295;48.518;9.206;2023-05-20T02:37:54;14.70;;;9.27;;
32250;SDS011;41295;48.518;9.206;2023-05-20T02:39:57;16.92;;;9.40;;
32250;SDS011;41295;48.518;9.206;2023-05-20T02:41:59;12.55;;;8.60;;
32250;SDS011;41295;48.518;9.206;2023-05-20T02:44:02;13.93;;;9.07;;
32250;SDS011;41295;48.518;9.206;2023-05-20T02:46:06;16.55;;;9.32;;
32250;SDS011;41295;48.518;9.206;2023-05-20T02:48:08;17.02;;;9.07;;
32250;SDS011;41295;48.518;9.206;2023-05-20T02:50:11;18.13;;;8.55;;
32250;SDS011;41295;48.518;9.206;2023-05-20T02:52:14;14.93;;;8.80;;
32250;SDS011;41295;48.518;9.206;2023-05-20T02:54:16;20.20;;;9.65;;
32250;SDS011;41295;48.518;9.206;2023-05-20T02:56:19;15.30;;;8.70;;
32250;SDS011;41295;48.518;9.206;2023-05-20T02:58:22;15.50;;;8.85;;
32250;SDS011;41295;48.518;9.206;2023-05-20T03:00:26;19.20;;;9.02;;
32250;SDS011;41295;48.518;9.206;2023-05-20T03:02:32;13.45;;;9.13;;
32250;SDS011;41295;48.518;9.206;2023-05-20T03:04:35;16.17;;;8.90;;
32250;SDS011;41295;48.518;9.206;2023-05-20T03:06:39;14.30;;;9.32;;
32250;SDS011;41295;48.518;9.206;2023-05-20T03:08:44;13.35;;;8.68;;
32250;SDS011;41295;48.518;9.206;2023-05-20T03:10:47;17.55;;;9.10;;
32250;SDS011;41295;48.518;9.206;2023-05-20T03:12:50;15.10;;;8.35;;
32250;SDS011;41295;48.518;9.206;2023-05-20T03:14:52;15.00;;;9.00;;
32250;SDS011;41295;48.518;9.206;2023-05-20T03:16:55;14.43;;;9.07;;
32250;SDS011;41295;48.518;9.206;2023-05-20T03:18:59;17.35;;;8.70;;
32250;SDS011;41295;48.518;9.206;2023-05-20T03:21:02;16.13;;;9.80;;
32250;SDS011;41295;48.518;9.206;2023-05-20T03:23:05;13.68;;;8.88;;
32250;SDS011;41295;48.518;9.206;2023-05-20T03:25:08;15.77;;;9.05;;
32250;SDS011;41295;48.518;9.206;2023-05-20T03:27:11;19.15;;;8.43;;
32250;SDS011;41295;48.518;9.206;2023-05-20T03:29:15;11.85;;;8.45;;
32250;SDS011;41295;48.518;9.206;2023-05-20T03:31:19;16.92;;;8.90;;
32250;SDS011;41295;48.518;9.206;2023-05-20T03:33:21;15.60;;;9.18;;
32250;SDS011;41295;48.518;9.206;2023-05-20T03:35:27;13.98;;;9.40;;
32250;SDS011;41295;48.518;9.206;2023-05-20T03:37:30;18.02;;;10.05;;
32250;SDS011;41295;48.518;9.206;2023-05-20T03:39:33;14.73;;;8.93;;
32250;SDS011;41295;48.518;9.206;2023-05-20T03:41:36;15.80;;;8.98;;
32250;SDS011;41295;48.518;9.206;2023-05-20T03:43:39;11.80;;;8.45;;
32250;SDS011;41295;48.518;9.206;2023-05-20T03:45:41;14.15;;;8.73;;
32250;SDS011;41295;48.518;9.206;2023-05-20T03:47:44;17.25;;;9.82;;
32250;SDS011;41295;48.518;9.206;2023-05-20T03:49:47;15.13;;;9.48;;
32250;SDS011;41295;48.518;9.206;2023-05-20T03:51:51;18.52;;;9.55;;
32250;SDS011;41295;48.518;9.206;2023-05-20T03:53:53;14.20;;;9.00;;
32250;SDS011;41295;48.518;9.206;2023-05-20T03:55:56;13.73;;;9.27;;
32250;SDS011;41295;48.518;9.206;2023-05-20T03:57:58;18.13;;;9.00;;
32250;SDS011;41295;48.518;9.206;2023-05-20T04:00:02;14.75;;;9.20;;
32250;SDS011;41295;48.518;9.206;2023-05-20T04:02:10;17.35;;;9.32;;
32250;SDS011;41295;48.518;9.206;2023-05-20T04:04:12;12.52;;;8.98;;
32250;SDS011;41295;48.518;9.206;2023-05-20T04:06:15;19.17;;;9.75;;
32250;SDS011;41295;48.518;9.206;2023-05-20T04:08:19;11.90;;;8.13;;
32250;SDS011;41295;48.518;9.206;2023-05-20T04:10:26;18.05;;;9.50;;
32250;SDS011;41295;48.518;9.206;2023-05-20T04:12:28;16.52;;;9.60;;
32250;SDS011;41295;48.518;9.206;2023-05-20T04:14:32;14.85;;;9.30;;
32250;SDS011;41295;48.518;9.206;2023-05-20T04:16:36;16.95;;;9.80;;
32250;SDS011;41295;48.518;9.206;2023-05-20T04:18:39;15.43;;;9.50;;
32250;SDS011;41295;48.518;9.206;2023-05-20T04:20:41;20.88;;;9.43;;
32250;SDS011;41295;48.518;9.206;2023-05-20T04:22:44;17.23;;;9.55;;
32250;SDS011;41295;48.518;9.206;2023-05-20T04:24:49;15.35;;;9.93;;
32250;SDS011;41295;48.518;9.206;2023-05-20T04:26:52;14.80;;;8.27;;
32250;SDS011;41295;48.518;9.206;2023-05-20T04:28:55;13.35;;;8.98;;
32250;SDS011;41295;48.518;9.206;2023-05-20T04:30:59;14.40;;;8.60;;
32250;SDS011;41295;48.518;9.206;2023-05-20T04:33:03;11.90;;;8.32;;
32250;SDS011;41295;48.518;9.206;2023-05-20T04:35:06;16.02;;;8.70;;
32250;SDS011;41295;48.518;9.206;2023-05-20T04:37:12;16.98;;;8.75;;
32250;SDS011;41295;48.518;9.206;2023-05-20T04:39:15;16.38;;;9.13;;
32250;SDS011;41295;48.518;9.206;2023-05-20T04:41:20;11.20;;;7.43;;
32250;SDS011;41295;48.518;9.206;2023-05-20T04:43:24;13.15;;;8.10;;
32250;SDS011;41295;48.518;9.206;2023-05-20T04:45:30;11.10;;;7.47;;
32250;SDS011;41295;48.518;9.206;2023-05-20T04:47:34;17.45;;;7.10;;
32250;SDS011;41295;48.518;9.206;2023-05-20T04:49:39;12.50;;;7.05;;
32250;SDS011;41295;48.518;9.206;2023-05-20T04:51:42;10.77;;;7.40;;
32250;SDS011;41295;48.518;9.206;2023-05-20T04:53:45;11.88;;;7.00;;
32250;SDS011;41295;48.518;9.206;2023-05-20T04:55:47;9.88;;;6.53;;
32250;SDS011;41295;48.518;9.206;2023-05-20T04:57:55;10.30;;;6.97;;
32250;SDS011;41295;48.518;9.206;2023-05-20T04:59:58;11.55;;;7.05;;
32250;SDS011;41295;48.518;9.206;2023-05-20T05:02:00;14.38;;;7.03;;
32250;SDS011;41295;48.518;9.206;2023-05-20T05:04:03;12.88;;;6.80;;
32250;SDS011;41295;48.518;9.206;2023-05-20T05:06:06;11.27;;;6.82;;
32250;SDS011;41295;48.518;9.206;2023-05-20T05:08:09;14.60;;;6.75;;
32250;SDS011;41295;48.518;9.206;2023-05-20T05:10:12;10.40;;;6.70;;
32250;SDS011;41295;48.518;9.206;2023-05-20T05:12:15;11.90;;;6.88;;
32250;SDS011;41295;48.518;9.206;2023-05-20T05:14:19;13.68;;;6.85;;
32250;SDS011;41295;48.518;9.206;2023-05-20T05:16:22;11.13;;;7.20;;
32250;SDS011;41295;48.518;9.206;2023-05-20T05:18:25;11.02;;;6.53;;
32250;SDS011;41295;48.518;9.206;2023-05-20T05:20:27;9.82;;;7.15;;
32250;SDS011;41295;48.518;9.206;2023-05-20T05:22:30;9.98;;;6.53;;
32250;SDS011;41295;48.518;9.206;2023-05-20T05:24:35;9.50;;;6.50;;
32250;SDS011;41295;48.518;9.206;2023-05-20T05:26:38;10.85;;;6.63;;
32250;SDS011;41295;48.518;9.206;2023-05-20T05:28:40;10.18;;;6.72;;
32250;SDS011;41295;48.518;9.206;2023-05-20T05:30:45;10.85;;;6.53;;
32250;SDS011;41295;48.518;9.206;2023-05-20T05:32:48;11.30;;;6.70;;
32250;SDS011;41295;48.518;9.206;2023-05-20T05:34:50;9.05;;;6.63;;
32250;SDS011;41295;48.518;9.206;2023-05-20T05:36:53;10.75;;;6.18;;
32250;SDS011;41295;48.518;9.206;2023-05-20T05:38:56;9.45;;;6.47;;
32250;SDS011;41295;48.518;9.206;2023-05-20T05:40:58;8.63;;;6.03;;
32250;SDS011;41295;48.518;9.206;2023-05-20T05:43:01;12.95;;;6.32;;
32250;SDS011;41295;48.518;9.206;2023-05-20T05:45:04;17.15;;;6.97;;
32250;SDS011;41295;48.518;9.206;2023-05-20T05:47:08;14.88;;;7.18;;
32250;SDS011;41295;48.518;9.206;2023-05-20T05:49:11;10.70;;;6.35;;
32250;SDS011;41295;48.518;9.206;2023-05-20T05:51:14;16.63;;;7.00;;
32250;SDS011;41295;48.518;9.206;2023-05-20T05:53:17;14.45;;;7.38;;
32250;SDS011;41295;48.518;9.206;2023-05-20T05:55:19;9.57;;;6.28;;
32250;SDS011;41295;48.518;9.206;2023-05-20T05:57:23;11.38;;;6.82;;
32250;SDS011;41295;48.518;9.206;2023-05-20T05:59:26;12.07;;;6.88;;
32250;SDS011;41295;48.518;9.206;2023-05-20T06:01:29;8.60;;;6.50;;
32250;SDS011;41295;48.518;9.206;2023-05-20T06:03:33;14.45;;;7.22;;
32250;SDS011;41295;48.518;9.206;2023-05-20T06:05:37;7.53;;;6.05;;
32250;SDS011;41295;48.518;9.206;2023-05-20T06:07:40;17.67;;;6.80;;
32250;SDS011;41295;48.518;9.206;2023-05-20T06:09:42;12.57;;;6.57;;
32250;SDS011;41295;48.518;9.206;2023-05-20T06:11:45;10.20;;;6.72;;
32250;SDS011;41295;48.518;9.206;2023-05-20T06:13:48;10.80;;;6.80;;
32250;SDS011;41295;48.518;9.206;2023-05-20T06:15:51;11.75;;;6.40;;
32250;SDS011;41295;48.518;9.206;2023-05-20T06:17:54;11.57;;;7.03;;
32250;SDS011;41295;48.518;9.206;2023-05-20T06:19:58;11.90;;;6.72;;
32250;SDS011;41295;48.518;9.206;2023-05-20T06:22:01;9.18;;;6.70;;
32250;SDS011;41295;48.518;9.206;2023-05-20T06:24:03;11.98;;;7.35;;
32250;SDS011;41295;48.518;9.206;2023-05-20T06:26:07;10.40;;;6.75;;
32250;SDS011;41295;48.518;9.206;2023-05-20T06:28:09;10.55;;;6.68;;
32250;SDS011;41295;48.518;9.206;2023-05-20T06:30:12;11.98;;;6.63;;
32250;SDS011;41295;48.518;9.206;2023-05-20T06:32:15;9.20;;;6.72;;
32250;SDS011;41295;48.518;9.206;2023-05-20T06:34:18;10.90;;;7.15;;
32250;SDS011;41295;48.518;9.206;2023-05-20T06:36:22;12.13;;;6.60;;
32250;SDS011;41295;48.518;9.206;2023-05-20T06:38:24;10.95;;;6.90;;
32250;SDS011;41295;48.518;9.206;2023-05-20T06:40:27;13.38;;;7.03;;
32250;SDS011;41295;48.518;9.206;2023-05-20T06:42:30;10.95;;;7.10;;
32250;SDS011;41295;48.518;9.206;2023-05-20T06:44:32;11.05;;;6.93;;
32250;SDS011;41295;48.518;9.206;2023-05-20T06:46:35;11.57;;;6.80;;
32250;SDS011;41295;48.518;9.206;2023-05-20T06:48:38;11.68;;;7.22;;
32250;SDS011;41295;48.518;9.206;2023-05-20T06:50:40;11.90;;;7.55;;
32250;SDS011;41295;48.518;9.206;2023-05-20T06:52:44;12.60;;;7.68;;
32250;SDS011;41295;48.518;9.206;2023-05-20T06:54:47;11.15;;;7.30;;
32250;SDS011;41295;48.518;9.206;2023-05-20T06:56:50;11.73;;;7.60;;
32250;SDS011;41295;48.518;9.206;2023-05-20T06:58:53;10.63;;;7.15;;
32250;SDS011;41295;48.518;9.206;2023-05-20T07:00:56;12.82;;;7.97;;
32250;SDS011;41295;48.518;9.206;2023-05-20T07:02:58;10.00;;;7.15;;
32250;SDS011;41295;48.518;9.206;2023-05-20T07:05:01;15.27;;;7.45;;
32250;SDS011;41295;48.518;9.206;2023-05-20T07:07:04;13.35;;;7.95;;
32250;SDS011;41295;48.518;9.206;2023-05-20T07:09:08;10.95;;;7.32;;
32250;SDS011;41295;48.518;9.206;2023-05-20T07:11:13;13.27;;;7.57;;
32250;SDS011;41295;48.518;9.206;2023-05-20T07:13:16;10.75;;;7.72;;
32250;SDS011;41295;48.518;9.206;2023-05-20T07:15:19;11.85;;;7.82;;
32250;SDS011;41295;48.518;9.206;2023-05-20T07:17:22;11.23;;;7.22;;
32250;SDS011;41295;48.518;9.206;2023-05-20T07:19:25;10.13;;;7.38;;
32250;SDS011;41295;48.518;9.206;2023-05-20T07:21:28;8.20;;;6.72;;
32250;SDS011;41295;48.518;9.206;2023-05-20T07:23:31;11.15;;;7.80;;
32250;SDS011;41295;48.518;9.206;2023-05-20T07:25:35;10.45;;;6.97;;
32250;SDS011;41295;48.518;9.206;2023-05-20T07:27:37;9.75;;;7.10;;
32250;SDS011;41295;48.518;9.206;2023-05-20T07:29:40;14.77;;;8.40;;
32250;SDS011;41295;48.518;9.206;2023-05-20T07:31:42;12.15;;;7.45;;
32250;SDS011;41295;48.518;9.206;2023-05-20T07:33:45;9.93;;;7.47;;
32250;SDS011;41295;48.518;9.206;2023-05-20T07:35:48;12.23;;;7.35;;
32250;SDS011;41295;48.518;9.206;2023-05-20T07:37:50;10.77;;;7.88;;
32250;SDS011;41295;48.518;9.206;2023-05-20T07:39:53;13.45;;;8.60;;
32250;SDS011;41295;48.518;9.206;2023-05-20T07:41:57;11.27;;;8.57;;
32250;SDS011;41295;48.518;9.206;2023-05-20T07:44:00;12.52;;;8.55;;
32250;SDS011;41295;48.518;9.206;2023-05-20T07:46:04;14.23;;;7.75;;
32250;SDS011;41295;48.518;9.206;2023-05-20T07:48:06;12.05;;;8.63;;
32250;SDS011;41295;48.518;9.206;2023-05-20T07:50:11;13.85;;;9.60;;
32250;SDS011;41295;48.518;9.206;2023-05-20T07:52:13;13.98;;;8.85;;
32250;SDS011;41295;48.518;9.206;2023-05-20T07:54:16;12.60;;;8.63;;
32250;SDS011;41295;48.518;9.206;2023-05-20T07:56:19;15.30;;;9.05;;
32250;SDS011;41295;48.518;9.206;2023-05-20T07:58:23;14.48;;;8.93;;
32250;SDS011;41295;48.518;9.206;2023-05-20T08:00:25;12.70;;;8.82;;
32250;SDS011;41295;48.518;9.206;2023-05-20T08:02:28;12.20;;;8.50;;
32250;SDS011;41295;48.518;9.206;2023-05-20T08:04:31;12.70;;;9.55;;
32250;SDS011;41295;48.518;9.206;2023-05-20T08:06:34;11.80;;;8.43;;
32250;SDS011;41295;48.518;9.206;2023-05-20T08:08:37;14.93;;;8.13;;
32250;SDS011;41295;48.518;9.206;2023-05-20T08:10:40;11.93;;;8.02;;
32250;SDS011;41295;48.518;9.206;2023-05-20T08:12:43;12.25;;;8.50;;
32250;SDS011;41295;48.518;9.206;2023-05-20T08:14:47;10.60;;;7.85;;
32250;SDS011;41295;48.518;9.206;2023-05-20T08:16:50;12.95;;;8.40;;
32250;SDS011;41295;48.518;9.206;2023-05-20T08:18:55;19.92;;;8.77;;
32250;SDS011;41295;48.518;9.206;2023-05-20T08:20:58;16.88;;;7.70;;
32250;SDS011;41295;48.518;9.206;2023-05-20T08:23:01;21.52;;;8.38;;
32250;SDS011;41295;48.518;9.206;2023-05-20T08:25:06;11.07;;;8.20;;
32250;SDS011;41295;48.518;9.206;2023-05-20T08:27:10;9.95;;;7.43;;
32250;SDS011;41295;48.518;9.206;2023-05-20T08:29:12;13.80;;;8.63;;
32250;SDS011;41295;48.518;9.206;2023-05-20T08:31:16;15.18;;;9.45;;
32250;SDS011;41295;48.518;9.206;2023-05-20T08:33:19;11.18;;;8.88;;
32250;SDS011;41295;48.518;9.206;2023-05-20T08:35:22;14.80;;;8.95;;
32250;SDS011;41295;48.518;9.206;2023-05-20T08:37:25;15.25;;;9.75;;
32250;SDS011;41295;48.518;9.206;2023-05-20T08:39:28;11.07;;;8.77;;
32250;SDS011;41295;48.518;9.206;2023-05-20T08:41:30;13.02;;;8.85;;
32250;SDS011;41295;48.518;9.206;2023-05-20T08:43:33;10.73;;;8.20;;
32250;SDS011;41295;48.518;9.206;2023-05-20T08:45:37;13.77;;;8.20;;
32250;SDS011;41295;48.518;9.206;2023-05-20T08:47:41;10.52;;;8.43;;
32250;SDS011;41295;48.518;9.206;2023-05-20T08:49:44;10.75;;;8.27;;
32250;SDS011;41295;48.518;9.206;2023-05-20T08:51:47;15.60;;;8.40;;
32250;SDS011;41295;48.518;9.206;2023-05-20T08:53:50;14.15;;;8.90;;
32250;SDS011;41295;48.518;9.206;2023-05-20T08:55:54;14.20;;;8.60;;
32250;SDS011;41295;48.518;9.206;2023-05-20T08:58:01;12.73;;;9.10;;
32250;SDS011;41295;48.518;9.206;2023-05-20T09:00:07;13.52;;;9.20;;
32250;SDS011;41295;48.518;9.206;2023-05-20T09:02:13;13.32;;;9.23;;
32250;SDS011;41295;48.518;9.206;2023-05-20T09:04:17;13.30;;;8.45;;
32250;SDS011;41295;48.518;9.206;2023-05-20T09:06:20;17.20;;;9.45;;
32250;SDS011;41295;48.518;9.206;2023-05-20T09:08:24;13.35;;;8.32;;
32250;SDS011;41295;48.518;9.206;2023-05-20T09:10:27;12.05;;;7.72;;
32250;SDS011;41295;48.518;9.206;2023-05-20T09:12:31;15.43;;;7.85;;
32250;SDS011;41295;48.518;9.206;2023-05-20T09:14:34;10.45;;;7.80;;
32250;SDS011;41295;48.518;9.206;2023-05-20T09:16:38;9.43;;;7.30;;
32250;SDS011;41295;48.518;9.206;2023-05-20T09:18:41;10.57;;;7.75;;
32250;SDS011;41295;48.518;9.206;2023-05-20T09:20:46;9.93;;;7.78;;
32250;SDS011;41295;48.518;9.206;2023-05-20T09:22:53;13.30;;;8.23;;
32250;SDS011;41295;48.518;9.206;2023-05-20T09:24:55;12.65;;;8.27;;
32250;SDS011;41295;48.518;9.206;2023-05-20T09:26:58;31.08;;;13.90;;
32250;SDS011;41295;48.518;9.206;2023-05-20T09:29:01;17.55;;;10.05;;
32250;SDS011;41295;48.518;9.206;2023-05-20T09:31:04;16.08;;;8.75;;
32250;SDS011;41295;48.518;9.206;2023-05-20T09:33:06;10.65;;;8.57;;
32250;SDS011;41295;48.518;9.206;2023-05-20T09:35:11;15.75;;;8.90;;
32250;SDS011;41295;48.518;9.206;2023-05-20T09:37:16;18.00;;;9.15;;
32250;SDS011;41295;48.518;9.206;2023-05-20T09:39:21;21.17;;;8.20;;
32250;SDS011;41295;48.518;9.206;2023-05-20T09:41:27;16.35;;;9.00;;
32250;SDS011;41295;48.518;9.206;2023-05-20T09:43:35;12.13;;;8.15;;
32250;SDS011;41295;48.518;9.206;2023-05-20T09:45:39;16.92;;;8.48;;
32250;SDS011;41295;48.518;9.206;2023-05-20T09:47:43;11.38;;;7.68;;
32250;SDS011;41295;48.518;9.206;2023-05-20T09:49:47;15.13;;;8.38;;
32250;SDS011;41295;48.518;9.206;2023-05-20T09:51:52;9.77;;;7.57;;
32250;SDS011;41295;48.518;9.206;2023-05-20T09:53:58;13.20;;;7.78;;
32250;SDS011;41295;48.518;9.206;2023-05-20T09:56:04;11.40;;;7.68;;
32250;SDS011;41295;48.518;9.206;2023-05-20T09:58:07;12.65;;;6.78;;
32250;SDS011;41295;48.518;9.206;2023-05-20T10:00:15;12.23;;;6.60;;
32250;SDS011;41295;48.518;9.206;2023-05-20T10:02:18;7.80;;;6.22;;
32250;SDS011;41295;48.518;9.206;2023-05-20T10:04:21;11.98;;;7.57;;
32250;SDS011;41295;48.518;9.206;2023-05-20T10:09:21;11.30;;;6.30;;
32250;SDS011;41295;48.518;9.206;2023-05-20T10:11:34;12.40;;;7.32;;
32250;SDS011;41295;48.518;9.206;2023-05-20T10:13:49;9.93;;;7.30;;
32250;SDS011;41295;48.518;9.206;2023-05-20T10:16:07;10.05;;;7.50;;
32250;SDS011;41295;48.518;9.206;2023-05-20T10:18:22;9.98;;;7.57;;
32250;SDS011;41295;48.518;9.206;2023-05-20T10:20:43;9.93;;;7.70;;
32250;SDS011;41295;48.518;9.206;2023-05-20T10:22:53;11.52;;;8.10;;
32250;SDS011;41295;48.518;9.206;2023-05-20T10:24:59;12.73;;;7.60;;
32250;SDS011;41295;48.518;9.206;2023-05-20T10:27:07;12.65;;;9.10;;
32250;SDS011;41295;48.518;9.206;2023-05-20T10:29:14;15.05;;;8.18;;
32250;SDS011;41295;48.518;9.206;2023-05-20T10:31:19;16.48;;;9.32;;
32250;SDS011;41295;48.518;9.206;2023-05-20T10:33:24;9.55;;;7.35;;
32250;SDS011;41295;48.518;9.206;2023-05-20T10:35:27;9.90;;;6.80;;
32250;SDS011;41295;48.518;9.206;2023-05-20T10:37:31;10.40;;;6.88;;
32250;SDS011;41295;48.518;9.206;2023-05-20T10:39:34;11.25;;;7.60;;
32250;SDS011;41295;48.518;9.206;2023-05-20T10:41:38;10.93;;;6.72;;
32250;SDS011;41295;48.518;9.206;2023-05-20T10:43:41;10.10;;;7.25;;
32250;SDS011;41295;48.518;9.206;2023-05-20T10:45:48;12.73;;;7.82;;
32250;SDS011;41295;48.518;9.206;2023-05-20T10:47:52;11.75;;;7.20;;
32250;SDS011;41295;48.518;9.206;2023-05-20T10:49:57;12.73;;;7.43;;
32250;SDS011;41295;48.518;9.206;2023-05-20T10:52:01;10.30;;;6.93;;
32250;SDS011;41295;48.518;9.206;2023-05-20T10:54:08;10.48;;;7.10;;
32250;SDS011;41295;48.518;9.206;2023-05-20T10:56:15;12.00;;;7.50;;
32250;SDS011;41295;48.518;9.206;2023-05-20T10:58:19;10.35;;;7.18;;
32250;SDS011;41295;48.518;9.206;2023-05-20T11:00:23;10.88;;;7.20;;
32250;SDS011;41295;48.518;9.206;2023-05-20T11:02:26;9.15;;;6.40;;
32250;SDS011;41295;48.518;9.206;2023-05-20T11:04:29;13.68;;;6.55;;
32250;SDS011;41295;48.518;9.206;2023-05-20T11:06:33;10.93;;;6.93;;
32250;SDS011;41295;48.518;9.206;2023-05-20T11:08:36;11.18;;;6.60;;
32250;SDS011;41295;48.518;9.206;2023-05-20T11:10:40;8.25;;;6.75;;
32250;SDS011;41295;48.518;9.206;2023-05-20T11:12:43;10.15;;;6.40;;
32250;SDS011;41295;48.518;9.206;2023-05-20T11:14:48;13.85;;;7.10;;
32250;SDS011;41295;48.518;9.206;2023-05-20T11:16:51;9.63;;;6.97;;
32250;SDS011;41295;48.518;9.206;2023-05-20T11:18:57;8.15;;;6.97;;
32250;SDS011;41295;48.518;9.206;2023-05-20T11:21:00;8.70;;;6.30;;
32250;SDS011;41295;48.518;9.206;2023-05-20T11:23:04;10.95;;;5.53;;
32250;SDS011;41295;48.518;9.206;2023-05-20T11:25:07;9.18;;;6.18;;
32250;SDS011;41295;48.518;9.206;2023-05-20T11:27:11;7.45;;;6.20;;
32250;SDS011;41295;48.518;9.206;2023-05-20T11:29:13;19.42;;;11.20;;
32250;SDS011;41295;48.518;9.206;2023-05-20T11:31:18;8.85;;;6.53;;
32250;SDS011;41295;48.518;9.206;2023-05-20T11:33:20;10.82;;;6.75;;
32250;SDS011;41295;48.518;9.206;2023-05-20T11:35:27;7.78;;;6.03;;
32250;SDS011;41295;48.518;9.206;2023-05-20T11:37:32;10.55;;;6.60;;
32250;SDS011;41295;48.518;9.206;2023-05-20T11:39:37;9.93;;;5.85;;
32250;SDS011;41295;48.518;9.206;2023-05-20T11:41:40;9.93;;;6.78;;
32250;SDS011;41295;48.518;9.206;2023-05-20T11:43:44;12.48;;;6.20;;
32250;SDS011;41295;48.518;9.206;2023-05-20T11:45:51;10.90;;;6.53;;
32250;SDS011;41295;48.518;9.206;2023-05-20T11:47:59;8.48;;;6.28;;
32250;SDS011;41295;48.518;9.206;2023-05-20T11:50:03;7.25;;;5.75;;
32250;SDS011;41295;48.518;9.206;2023-05-20T11:52:07;10.07;;;6.50;;
32250;SDS011;41295;48.518;9.206;2023-05-20T11:54:11;10.23;;;6.50;;
32250;SDS011;41295;48.518;9.206;2023-05-20T11:56:14;8.82;;;6.32;;
32250;SDS011;41295;48.518;9.206;2023-05-20T11:58:17;9.82;;;6.53;;
32250;SDS011;41295;48.518;9.206;2023-05-20T12:00:21;10.75;;;6.38;;
32250;SDS011;41295;48.518;9.206;2023-05-20T12:02:25;8.13;;;6.10;;
32250;SDS011;41295;48.518;9.206;2023-05-20T12:04:29;10.10;;;6.18;;
32250;SDS011;41295;48.518;9.206;2023-05-20T12:06:32;10.75;;;7.00;;
32250;SDS011;41295;48.518;9.206;2023-05-20T12:08:35;8.30;;;6.35;;
32250;SDS011;41295;48.518;9.206;2023-05-20T12:10:37;7.82;;;6.13;;
32250;SDS011;41295;48.518;9.206;2023-05-20T12:12:40;12.30;;;6.38;;
32250;SDS011;41295;48.518;9.206;2023-05-20T12:14:44;10.10;;;6.35;;
32250;SDS011;41295;48.518;9.206;2023-05-20T12:16:46;8.23;;;6.40;;